Time;durP1;ratioP1;P1;durP2;ratioP2;P2;SDS_P1;SDS_P2;PMS_P1;PMS_P2;Temp;Humidity;BMP_temperature;BMP_pressure;BME280_temperature;BME280_humidity;BME280_pressure;Samples;Min_cycle;Max_cycle;Signal;HPM_P1;HPM_P2
2021/08/02 00:00:29;;;;;;;8.45;3.25;;;;;;;14.67;100.00;100794.69;6299755;28;20135;-78
2021/08/02 00:03:38;;;;;;;10.52;2.97;;;;;;;14.62;100.00;100783.56;6300375;28;20502;-78
2021/08/02 00:06:47;;;;;;;8.88;2.67;;;;;;;14.61;100.00;100787.19;6300143;28;20044;-77
2021/08/02 00:09:50;;;;;;;9.68;3.72;;;;;;;14.57;100.00;100783.06;6299696;28;20131;-77
2021/08/02 00:12:56;;;;;;;8.82;3.25;;;;;;;14.52;100.00;100790.47;6299913;28;20044;-78
2021/08/02 00:16:00;;;;;;;9.05;3.45;;;;;;;14.38;100.00;100784.28;6300301;28;20408;-78
2021/08/02 00:19:01;;;;;;;11.43;3.80;;;;;;;14.35;100.00;100783.66;6299634;28;20075;-78
2021/08/02 00:22:04;;;;;;;8.18;3.58;;;;;;;14.31;100.00;100790.97;6305768;28;20045;-77
2021/08/02 00:25:07;;;;;;;16.65;4.10;;;;;;;14.25;100.00;100780.78;6303184;28;20492;-77
2021/08/02 00:28:09;;;;;;;10.10;3.92;;;;;;;14.15;100.00;100788.50;6304942;28;20055;-78
2021/08/02 00:31:11;;;;;;;11.73;3.40;;;;;;;14.07;100.00;100785.53;6302754;28;20049;-78
2021/08/02 00:34:12;;;;;;;11.57;3.70;;;;;;;14.07;100.00;100792.63;6302748;28;20049;-77
2021/08/02 00:37:22;;;;;;;6.15;3.80;;;;;;;14.00;100.00;100800.13;6301560;28;20040;-78
2021/08/02 00:40:43;;;;;;;;;;;;;;;13.94;100.00;100800.50;6301360;28;20045;-77
2021/08/02 00:44:24;;;;;;;9.75;3.20;;;;;;;13.88;100.00;100798.28;6298608;28;19927;-76
2021/08/02 00:47:29;;;;;;;9.30;3.67;;;;;;;13.87;100.00;100800.09;6298433;28;20074;-77
2021/08/02 00:50:34;;;;;;;8.35;3.78;;;;;;;13.79;100.00;100805.00;6298249;28;20487;-77
2021/08/02 00:53:39;;;;;;;16.58;3.85;;;;;;;13.80;100.00;100805.84;6298451;28;20055;-77
2021/08/02 00:56:43;;;;;;;9.05;3.40;;;;;;;13.83;100.00;100801.22;6297863;28;20048;-77
2021/08/02 00:59:45;;;;;;;8.98;2.95;;;;;;;13.88;100.00;100799.13;6297979;28;20059;-78
2021/08/02 01:02:50;;;;;;;9.40;3.00;;;;;;;13.76;100.00;100805.22;6297814;28;20052;-78
2021/08/02 01:05:55;;;;;;;21.60;3.25;;;;;;;13.67;100.00;100804.03;6298025;28;20041;-78
2021/08/02 01:09:02;;;;;;;6.53;3.00;;;;;;;13.61;100.00;100798.31;6298220;28;20049;-78
2021/08/02 01:12:07;;;;;;;8.43;2.83;;;;;;;13.56;100.00;100798.59;6297848;28;20048;-77
2021/08/02 01:15:10;;;;;;;8.90;2.80;;;;;;;13.54;100.00;100804.94;6297850;28;20049;-78
2021/08/02 01:18:13;;;;;;;25.35;4.35;;;;;;;13.49;100.00;100799.97;6297615;28;20056;-77
2021/08/02 01:21:16;;;;;;;8.95;2.47;;;;;;;13.49;100.00;100807.00;6297432;28;20131;-77
2021/08/02 01:24:19;;;;;;;5.93;2.55;;;;;;;13.46;100.00;100805.44;6297585;28;20491;-77
2021/08/02 01:28:12;;;;;;;10.27;3.22;;;;;;;13.43;100.00;100805.63;6297473;28;20052;-78
2021/08/02 01:31:13;;;;;;;10.00;2.50;;;;;;;13.42;100.00;100810.06;6296930;28;20056;-77
2021/08/02 01:34:14;;;;;;;9.43;2.95;;;;;;;13.36;100.00;100814.88;6297123;28;20052;-76
2021/08/02 01:37:16;;;;;;;9.38;2.80;;;;;;;13.39;100.00;100819.94;6297413;28;20048;-77
2021/08/02 01:40:19;;;;;;;5.22;2.70;;;;;;;13.34;100.00;100825.53;6296883;28;20499;-77
2021/08/02 01:43:20;;;;;;;6.25;3.28;;;;;;;13.32;100.00;100822.16;6290265;28;20041;-76
2021/08/02 01:46:31;;;;;;;10.40;2.72;;;;;;;13.38;100.00;100823.53;6272065;28;20052;-77
2021/08/02 01:49:38;;;;;;;11.73;2.95;;;;;;;13.35;100.00;100829.00;6271813;28;20080;-77
2021/08/02 01:52:54;;;;;;;13.85;2.42;;;;;;;13.23;100.00;100829.81;6272316;28;20044;-76
2021/08/02 01:56:03;;;;;;;8.05;2.95;;;;;;;13.18;100.00;100830.06;6272260;28;20127;-77
2021/08/02 01:59:08;;;;;;;5.17;2.40;;;;;;;13.20;100.00;100820.25;6271917;28;20531;-77
2021/08/02 02:02:12;;;;;;;6.93;2.50;;;;;;;13.12;100.00;100822.50;6271626;28;20291;-77
2021/08/02 02:05:17;;;;;;;7.43;3.00;;;;;;;13.13;100.00;100824.22;6271804;28;20048;-77
2021/08/02 02:08:22;;;;;;;7.05;2.90;;;;;;;13.10;100.00;100814.72;6272173;28;20048;-77
2021/08/02 02:11:26;;;;;;;10.55;3.33;;;;;;;13.10;100.00;100819.13;6271523;28;20053;-76
2021/08/02 02:14:30;;;;;;;10.20;2.83;;;;;;;13.13;100.00;100818.94;6272123;28;20533;-77
2021/08/02 02:17:37;;;;;;;11.02;3.00;;;;;;;13.11;100.00;100829.59;6271814;28;20056;-77
2021/08/02 02:20:38;;;;;;;10.77;3.10;;;;;;;13.04;100.00;100830.94;6271500;28;20045;-77
2021/08/02 02:23:40;;;;;;;10.80;2.85;;;;;;;13.07;100.00;100835.16;6271668;28;20060;-77
2021/08/02 02:26:44;;;;;;;8.35;2.50;;;;;;;13.13;100.00;100835.63;6271439;28;20045;-77
2021/08/02 02:29:47;;;;;;;7.95;2.85;;;;;;;13.18;100.00;100828.28;6271447;28;20055;-77
2021/08/02 02:32:50;;;;;;;9.95;2.33;;;;;;;13.18;100.00;100833.53;6271471;28;20049;-76
2021/08/02 02:35:53;;;;;;;6.75;2.90;;;;;;;13.11;100.00;100834.03;6271191;28;20045;-77
2021/08/02 02:38:54;;;;;;;10.95;2.97;;;;;;;13.08;100.00;100835.06;6271334;28;20408;-77
2021/08/02 02:41:58;;;;;;;4.90;2.50;;;;;;;13.07;100.00;100843.06;6271287;28;20060;-77
2021/08/02 02:45:01;;;;;;;5.28;2.25;;;;;;;13.05;100.00;100839.69;6271392;28;20057;-77
2021/08/02 02:48:03;;;;;;;7.32;2.65;;;;;;;12.98;100.00;100847.13;6271225;28;20053;-77
2021/08/02 02:51:06;;;;;;;8.82;2.80;;;;;;;12.94;100.00;100849.13;6271293;28;20045;-77
2021/08/02 02:54:07;;;;;;;6.07;3.58;;;;;;;12.91;100.00;100857.22;6271505;28;20060;-77
2021/08/02 02:57:10;;;;;;;9.82;2.65;;;;;;;12.88;100.00;100859.19;6271876;28;20055;-77
2021/08/02 03:00:12;;;;;;;9.27;3.25;;;;;;;12.87;100.00;100860.13;6276167;28;20051;-77
2021/08/02 03:03:17;;;;;;;6.10;2.70;;;;;;;12.84;100.00;100863.78;6276409;28;20053;-77
2021/08/02 03:06:19;;;;;;;7.05;2.90;;;;;;;12.81;100.00;100855.22;6276038;28;20049;-77
2021/08/02 03:09:22;;;;;;;8.23;2.70;;;;;;;12.80;100.00;100858.78;6275989;28;20049;-77
2021/08/02 03:12:25;;;;;;;5.85;2.67;;;;;;;12.78;100.00;100865.97;6275717;28;20056;-77
2021/08/02 03:15:27;;;;;;;7.78;2.35;;;;;;;12.80;100.00;100866.72;6276084;28;20496;-77
2021/08/02 03:18:29;;;;;;;24.15;3.15;;;;;;;12.76;100.00;100868.69;6275704;28;20052;-77
2021/08/02 03:21:30;;;;;;;9.18;2.42;;;;;;;12.75;100.00;100863.50;6275699;28;20056;-77
2021/08/02 03:24:42;;;;;;;8.85;2.90;;;;;;;12.68;100.00;100869.16;6275620;28;20049;-77
2021/08/02 03:27:51;;;;;;;6.97;2.80;;;;;;;12.63;100.00;100870.38;6275445;28;20408;-77
2021/08/02 03:30:57;;;;;;;5.32;2.30;;;;;;;12.62;100.00;100872.13;6275253;28;20049;-77
2021/08/02 03:34:01;;;;;;;3.50;2.17;;;;;;;12.63;100.00;100870.38;6275564;28;20049;-77
2021/08/02 03:37:06;;;;;;;8.45;2.63;;;;;;;12.59;100.00;100864.44;6275323;28;20071;-77
2021/08/02 03:40:12;;;;;;;3.88;2.00;;;;;;;12.60;100.00;100874.03;6275247;28;20053;-77
2021/08/02 03:43:16;;;;;;;11.40;2.30;;;;;;;12.51;100.00;100864.03;6275530;28;20049;-77
2021/08/02 03:46:19;;;;;;;6.82;2.67;;;;;;;12.43;100.00;100864.50;6275382;28;20045;-77
2021/08/02 03:49:21;;;;;;;10.00;2.60;;;;;;;12.41;100.00;100874.28;6274985;28;20528;-77
2021/08/02 03:52:24;;;;;;;6.68;2.60;;;;;;;12.42;100.00;100872.50;6275053;28;20045;-77
2021/08/02 03:55:26;;;;;;;10.57;3.15;;;;;;;12.38;100.00;100876.25;6275129;28;20048;-78
2021/08/02 03:58:28;;;;;;;8.13;2.97;;;;;;;12.39;100.00;100876.16;6274613;28;20048;-77
2021/08/02 04:01:30;;;;;;;9.13;2.53;;;;;;;12.45;100.00;100877.59;6274817;28;20053;-77
2021/08/02 04:04:31;;;;;;;12.38;3.50;;;;;;;12.41;100.00;100889.25;6274611;28;20489;-77
2021/08/02 04:07:33;;;;;;;7.38;2.33;;;;;;;12.36;100.00;100886.88;6274686;28;20041;-77
2021/08/02 04:10:34;;;;;;;4.60;2.45;;;;;;;12.38;100.00;100892.06;6273508;28;20048;-77
2021/08/02 04:13:37;;;;;;;16.83;3.20;;;;;;;12.36;100.00;100907.13;6274835;28;20045;-78
2021/08/02 04:16:40;;;;;;;7.00;2.92;;;;;;;12.38;100.00;100898.19;6274708;28;20418;-77
2021/08/02 04:19:41;;;;;;;8.32;3.13;;;;;;;12.41;100.00;100899.78;6274496;28;20623;-78
2021/08/02 04:22:43;;;;;;;8.88;2.80;;;;;;;12.37;100.00;100899.13;6274527;28;20493;-77
2021/08/02 04:25:44;;;;;;;6.03;2.70;;;;;;;12.33;100.00;100904.66;6274324;28;20044;-77
2021/08/02 04:28:47;;;;;;;6.13;3.17;;;;;;;12.34;100.00;100898.44;6274240;28;20075;-77
2021/08/02 04:31:48;;;;;;;9.52;2.63;;;;;;;12.36;100.00;100904.50;6274437;28;20055;-78
2021/08/02 04:34:50;;;;;;;7.40;2.40;;;;;;;12.40;100.00;100904.22;6274137;28;20049;-77
2021/08/02 04:37:51;;;;;;;6.72;2.72;;;;;;;12.40;100.00;100908.66;6273794;28;20041;-76
2021/08/02 04:40:52;;;;;;;8.98;2.83;;;;;;;12.41;100.00;100915.59;6273847;28;20060;-77
2021/08/02 04:43:55;;;;;;;8.90;3.15;;;;;;;12.41;100.00;100918.25;6273803;28;20511;-77
2021/08/02 04:46:56;;;;;;;4.15;2.38;;;;;;;12.42;100.00;100917.31;6273758;28;20523;-76
2021/08/02 04:49:58;;;;;;;5.22;2.70;;;;;;;12.42;100.00;100920.78;6273327;28;20423;-78
2021/08/02 04:52:59;;;;;;;9.65;2.53;;;;;;;12.46;100.00;100920.63;6274027;28;20056;-77
2021/08/02 04:56:01;;;;;;;12.50;2.88;;;;;;;12.47;100.00;100920.50;6273829;28;20044;-77
2021/08/02 04:59:03;;;;;;;9.43;3.15;;;;;;;12.50;100.00;100919.50;6273591;28;20041;-77
2021/08/02 05:02:05;;;;;;;11.52;2.95;;;;;;;12.55;100.00;100925.34;6290127;28;20048;-77
2021/08/02 05:05:07;;;;;;;10.75;2.80;;;;;;;12.59;100.00;100926.88;6290014;28;20522;-77
2021/08/02 05:08:08;;;;;;;4.43;2.75;;;;;;;12.60;100.00;100924.13;6297887;28;20056;-77
2021/08/02 05:11:09;;;;;;;8.38;4.00;;;;;;;12.69;100.00;100922.75;6289530;28;20045;-77
2021/08/02 05:14:12;;;;;;;12.25;2.92;;;;;;;12.73;100.00;100929.53;6298047;28;20072;-77
2021/08/02 05:17:13;;;;;;;9.10;3.03;;;;;;;12.79;100.00;100929.16;6297879;28;20053;-78
2021/08/02 05:20:18;;;;;;;5.22;2.45;;;;;;;12.84;100.00;100924.44;6297362;28;20392;-77
2021/08/02 05:23:19;;;;;;;5.40;2.67;;;;;;;12.89;100.00;100929.44;6297686;28;20059;-77
2021/08/02 05:26:21;;;;;;;5.55;2.55;;;;;;;12.89;100.00;100917.09;6297683;28;20044;-77
2021/08/02 05:29:23;;;;;;;8.30;2.80;;;;;;;12.94;100.00;100920.34;6297524;28;20080;-77
2021/08/02 05:32:25;;;;;;;7.05;2.97;;;;;;;12.94;100.00;100927.38;6297644;28;20514;-77
2021/08/02 05:35:26;;;;;;;9.68;3.40;;;;;;;12.98;100.00;100930.69;6297570;28;20044;-77
2021/08/02 05:38:28;;;;;;;5.70;2.60;;;;;;;12.99;100.00;100922.72;6297035;28;20052;-77
2021/08/02 05:41:29;;;;;;;7.93;2.20;;;;;;;13.01;100.00;100926.09;6297049;28;20056;-77
2021/08/02 05:44:32;;;;;;;8.82;2.90;;;;;;;12.99;100.00;100938.53;6297490;28;20055;-78
2021/08/02 05:47:34;;;;;;;9.30;2.45;;;;;;;13.00;100.00;100937.59;6297390;28;20403;-77
2021/08/02 05:50:35;;;;;;;7.63;2.78;;;;;;;13.00;100.00;100937.59;6296959;28;20048;-78
2021/08/02 05:53:38;;;;;;;7.70;3.47;;;;;;;13.02;100.00;100946.25;6299542;28;20055;-77
2021/08/02 05:56:39;;;;;;;7.47;2.92;;;;;;;13.06;100.00;100941.63;6297813;28;20484;-77
2021/08/02 05:59:42;;;;;;;11.35;2.58;;;;;;;13.17;100.00;100949.72;6297934;28;20056;-78
2021/08/02 06:02:44;;;;;;;8.20;2.13;;;;;;;13.27;100.00;100940.38;6296797;28;20059;-77
2021/08/02 06:05:45;;;;;;;9.02;2.63;;;;;;;13.28;100.00;100938.56;6282237;28;20500;-77
2021/08/02 06:08:46;;;;;;;12.30;3.53;;;;;;;13.38;100.00;100944.97;6284955;28;20052;-79
2021/08/02 06:11:48;;;;;;;8.13;2.35;;;;;;;13.45;100.00;100943.66;6282558;28;20044;-78
2021/08/02 06:14:51;;;;;;;10.57;3.17;;;;;;;13.51;100.00;100951.19;6274782;28;20052;-77
2021/08/02 06:17:52;;;;;;;10.43;2.67;;;;;;;13.60;100.00;100958.53;6273161;28;20044;-77
2021/08/02 06:20:53;;;;;;;7.22;2.25;;;;;;;13.71;100.00;100957.84;6282311;28;20052;-77
2021/08/02 06:23:55;;;;;;;9.68;2.53;;;;;;;13.81;100.00;100974.00;6282703;28;20040;-78
2021/08/02 06:26:56;;;;;;;13.95;3.00;;;;;;;13.83;100.00;100962.38;6283052;28;20041;-78
2021/08/02 06:30:00;;;;;;;10.75;2.85;;;;;;;13.83;100.00;100967.66;6284489;28;20412;-78
2021/08/02 06:33:01;;;;;;;9.02;2.53;;;;;;;13.83;100.00;100961.53;6279863;28;20049;-77
2021/08/02 06:36:02;;;;;;;7.15;2.28;;;;;;;13.86;100.00;100969.25;6277054;28;20052;-79
2021/08/02 06:39:04;;;;;;;7.75;2.10;;;;;;;13.87;100.00;100963.88;6277351;28;20056;-78
2021/08/02 06:42:05;;;;;;;9.13;2.45;;;;;;;13.94;100.00;100961.69;6276324;28;20052;-77
2021/08/02 06:45:10;;;;;;;6.38;2.60;;;;;;;13.98;100.00;100972.91;6277207;28;20530;-78
2021/08/02 06:48:12;;;;;;;4.53;1.92;;;;;;;13.99;100.00;100970.19;6276603;28;20435;-77
2021/08/02 06:51:14;;;;;;;11.52;2.22;;;;;;;14.04;100.00;100978.66;6276451;28;20064;-77
2021/08/02 06:54:15;;;;;;;7.60;2.08;;;;;;;14.13;100.00;100982.50;6276650;28;20044;-78
2021/08/02 06:57:16;;;;;;;6.53;1.90;;;;;;;14.24;100.00;100980.00;6276399;28;20041;-78
2021/08/02 07:00:19;;;;;;;4.88;2.60;;;;;;;14.29;100.00;100988.47;6276176;28;20496;-78
2021/08/02 07:03:20;;;;;;;9.75;2.50;;;;;;;14.41;100.00;100998.28;6291784;28;20059;-77
2021/08/02 07:06:22;;;;;;;8.02;1.83;;;;;;;14.39;100.00;100992.22;6292194;28;20424;-76
2021/08/02 07:09:23;;;;;;;5.90;1.95;;;;;;;14.41;100.00;100990.34;6299782;28;20045;-78
2021/08/02 07:12:24;;;;;;;6.05;1.80;;;;;;;14.30;100.00;100991.97;6291331;28;20049;-76
2021/08/02 07:15:27;;;;;;;9.73;2.20;;;;;;;14.33;100.00;100989.97;6300572;28;20049;-77
2021/08/02 07:18:29;;;;;;;11.15;1.80;;;;;;;14.37;100.00;100986.19;6300278;28;20401;-77
2021/08/02 07:21:30;;;;;;;7.72;2.10;;;;;;;14.37;100.00;100991.47;6300078;28;20049;-77
2021/08/02 07:24:31;;;;;;;6.55;2.33;;;;;;;14.43;99.92;100999.00;6300520;28;20053;-77
2021/08/02 07:27:33;;;;;;;6.20;2.35;;;;;;;14.43;99.12;100993.72;6300664;28;20049;-77
2021/08/02 07:30:35;;;;;;;7.32;2.00;;;;;;;14.53;98.14;100999.28;6300043;28;20123;-77
2021/08/02 07:33:38;;;;;;;10.10;2.80;;;;;;;14.53;97.33;100988.69;6300397;28;20059;-77
2021/08/02 07:36:40;;;;;;;6.78;1.58;;;;;;;14.59;98.56;100985.66;6300063;28;20051;-77
2021/08/02 07:39:41;;;;;;;15.18;2.05;;;;;;;14.68;97.71;100985.06;6300187;28;20063;-77
2021/08/02 07:42:43;;;;;;;4.35;1.85;;;;;;;14.75;93.97;100989.94;6299813;28;20051;-77
2021/08/02 07:45:45;;;;;;;10.23;1.60;;;;;;;14.80;95.12;100993.09;6300383;28;20055;-77
2021/08/02 07:48:51;;;;;;;8.32;2.00;;;;;;;14.94;95.01;100996.53;6289487;28;20064;-79
2021/08/02 07:51:54;;;;;;;5.97;1.60;;;;;;;15.03;94.35;100991.56;6291445;28;20166;-79
2021/08/02 07:54:55;;;;;;;7.15;1.98;;;;;;;15.12;91.69;100990.91;6283574;28;20044;-79
2021/08/02 07:57:56;;;;;;;11.25;1.60;;;;;;;15.13;91.71;100990.00;6301106;28;20048;-80
2021/08/02 08:00:59;;;;;;;9.23;1.63;;;;;;;15.17;90.66;100989.69;6281673;28;20127;-78
2021/08/02 08:04:00;;;;;;;10.95;1.83;;;;;;;15.22;89.65;100990.22;6291792;28;20052;-77
2021/08/02 08:07:02;;;;;;;8.05;1.50;;;;;;;15.28;90.62;100991.56;6283579;28;20045;-78
2021/08/02 08:10:04;;;;;;;11.02;1.60;;;;;;;15.40;89.13;100987.25;6300168;28;20133;-79
2021/08/02 08:13:07;;;;;;;6.93;1.55;;;;;;;15.45;88.84;100993.91;6300428;28;20045;-79
2021/08/02 08:16:09;;;;;;;4.88;1.52;;;;;;;15.40;88.60;100990.75;6300022;28;20063;-79
2021/08/02 08:19:11;;;;;;;8.23;1.90;;;;;;;15.47;86.67;100988.50;6299577;28;20063;-78
2021/08/02 08:22:12;;;;;;;12.00;1.88;;;;;;;15.61;86.20;100983.06;6275124;28;20695;-81
2021/08/02 08:25:14;;;;;;;8.05;1.30;;;;;;;15.69;83.45;100988.72;6275633;28;20059;-78
2021/08/02 08:28:15;;;;;;;6.10;1.40;;;;;;;15.87;81.08;100983.06;6275444;28;20048;-78
2021/08/02 08:31:18;;;;;;;5.10;1.17;;;;;;;15.96;80.68;100982.41;6274818;28;20045;-80
2021/08/02 08:34:19;;;;;;;6.93;1.58;;;;;;;15.97;80.66;100989.38;6275078;28;20150;-82
2021/08/02 08:37:21;;;;;;;6.22;1.10;;;;;;;15.97;79.36;100976.97;6275747;28;20052;-81
2021/08/02 08:40:23;;;;;;;4.78;1.20;;;;;;;16.07;80.32;100982.44;6284397;28;20049;-79
2021/08/02 08:43:24;;;;;;;4.10;1.90;;;;;;;16.19;77.75;100978.91;6299366;28;20102;-80
2021/08/02 08:46:27;;;;;;;4.60;1.38;;;;;;;16.30;77.12;100983.44;6299485;28;20048;-77
2021/08/02 08:49:28;;;;;;;5.57;1.10;;;;;;;16.36;76.88;100985.66;6298084;28;20045;-77
2021/08/02 08:52:31;;;;;;;5.32;1.50;;;;;;;16.34;76.14;100994.66;6298395;28;20433;-77
2021/08/02 08:55:33;;;;;;;6.07;1.38;;;;;;;16.44;75.67;100996.53;6293170;28;20052;-78
2021/08/02 08:58:34;;;;;;;9.45;1.42;;;;;;;16.42;74.38;101003.75;6289152;28;20052;-77
2021/08/02 09:01:37;;;;;;;4.03;0.98;;;;;;;16.48;73.72;100984.72;6289871;28;20484;-79
2021/08/02 09:04:38;;;;;;;4.15;1.15;;;;;;;16.53;74.50;100983.53;6278602;28;20052;-77
2021/08/02 09:07:41;;;;;;;2.95;1.00;;;;;;;16.45;74.51;100989.44;6274185;28;20055;-78
2021/08/02 09:10:43;;;;;;;8.77;1.80;;;;;;;16.35;75.20;100991.91;6274057;28;20060;-77
2021/08/02 09:13:44;;;;;;;8.70;1.50;;;;;;;16.43;73.73;100991.34;6277465;28;20476;-77
2021/08/02 09:16:54;;;;;;;1.83;0.82;;;;;;;16.64;72.61;100994.19;6298229;28;20048;-77
2021/08/02 09:19:56;;;;;;;5.43;1.08;;;;;;;16.66;72.83;100982.50;6298022;28;20055;-77
2021/08/02 09:23:05;;;;;;;5.43;1.30;;;;;;;16.85;72.34;100982.00;6297348;28;20055;-75
2021/08/02 09:26:07;;;;;;;7.40;1.80;;;;;;;16.95;67.94;100983.00;6298080;28;20059;-77
2021/08/02 09:29:09;;;;;;;6.97;1.40;;;;;;;16.80;71.03;100985.94;6297182;28;20047;-76
2021/08/02 09:32:12;;;;;;;3.00;1.05;;;;;;;16.69;72.51;100976.13;6297978;28;20185;-77
2021/08/02 09:35:14;;;;;;;5.88;1.40;;;;;;;16.72;74.14;100989.22;6297647;28;20048;-76
2021/08/02 09:38:16;;;;;;;2.80;1.27;;;;;;;16.71;74.10;100992.75;6298089;28;20045;-79
2021/08/02 09:41:20;;;;;;;8.80;1.67;;;;;;;16.71;72.65;100988.34;6297748;28;20056;-77
2021/08/02 09:44:24;;;;;;;5.85;1.08;;;;;;;16.69;71.43;100990.25;6297695;28;20136;-76
2021/08/02 09:47:29;;;;;;;3.78;1.25;;;;;;;16.66;71.64;100993.13;6297643;28;20044;-77
2021/08/02 09:50:31;;;;;;;5.32;1.15;;;;;;;16.83;71.26;100975.13;6272298;28;20060;-77
2021/08/02 09:53:38;;;;;;;6.03;1.52;;;;;;;16.82;70.01;100976.09;6272890;28;20060;-77
2021/08/02 09:56:39;;;;;;;8.27;1.30;;;;;;;16.81;70.97;100985.00;6286487;28;20101;-78
2021/08/02 09:59:42;;;;;;;7.60;1.30;;;;;;;16.78;71.25;100977.28;6297311;28;20048;-77
2021/08/02 10:02:46;;;;;;;13.57;2.25;;;;;;;16.68;72.81;100987.72;6297725;28;20098;-75
2021/08/02 10:05:49;;;;;;;12.35;1.50;;;;;;;16.62;72.55;100985.50;6297493;28;20048;-77
2021/08/02 10:08:51;;;;;;;6.60;1.38;;;;;;;16.62;73.18;100993.44;6296316;28;20121;-78
2021/08/02 10:11:52;;;;;;;6.43;1.33;;;;;;;16.61;74.32;100999.72;6297400;28;20085;-79
2021/08/02 10:14:56;;;;;;;6.32;1.38;;;;;;;16.71;72.40;100988.34;6297333;28;20048;-77
2021/08/02 10:18:00;;;;;;;3.38;1.20;;;;;;;16.90;67.03;100982.50;6297513;28;20127;-76
2021/08/02 10:21:03;;;;;;;4.97;1.08;;;;;;;16.96;66.05;100984.69;6296927;28;20499;-79
2021/08/02 10:24:06;;;;;;;2.72;0.95;;;;;;;17.10;67.53;100974.81;6297335;28;20052;-76
2021/08/02 10:27:07;;;;;;;1.75;0.75;;;;;;;17.28;65.66;100983.16;6297280;28;20465;-76
2021/08/02 10:30:23;;;;;;;10.88;1.05;;;;;;;17.40;64.38;100969.78;6297299;28;20072;-78
2021/08/02 10:33:32;;;;;;;7.05;1.48;;;;;;;17.51;62.66;100979.56;6297124;28;20070;-77
2021/08/02 10:36:33;;;;;;;9.13;1.48;;;;;;;17.60;64.32;100970.00;6299043;28;20045;-78
2021/08/02 10:39:36;;;;;;;4.20;1.15;;;;;;;17.85;63.22;100979.56;6303809;28;20051;-81
2021/08/02 10:42:45;;;;;;;7.10;1.30;;;;;;;17.87;64.69;100974.97;6307669;28;20053;-80
2021/08/02 10:45:49;;;;;;;5.88;1.30;;;;;;;17.90;64.52;100978.25;6304060;28;20049;-79
2021/08/02 10:48:54;;;;;;;6.70;1.45;;;;;;;17.78;61.94;100978.38;6303738;28;20131;-81
2021/08/02 10:51:55;;;;;;;4.28;1.23;;;;;;;17.89;62.94;100970.38;6297851;28;20048;-81
2021/08/02 10:54:58;;;;;;;2.63;1.10;;;;;;;17.88;63.49;100974.00;6296750;28;20056;-79
2021/08/02 10:58:00;;;;;;;5.95;1.38;;;;;;;17.70;61.13;100971.81;6272206;28;20484;-80
2021/08/02 11:01:04;;;;;;;5.93;1.52;;;;;;;17.73;62.64;100976.91;6277451;28;20416;-81
2021/08/02 11:04:14;;;;;;;10.13;1.17;;;;;;;17.78;61.55;100970.41;6288947;28;20440;-79
2021/08/02 11:07:16;;;;;;;7.03;1.20;;;;;;;17.72;62.70;100975.22;6271758;28;20053;-79
2021/08/02 11:10:18;;;;;;;5.35;1.10;;;;;;;18.07;61.99;100976.00;6271671;28;20049;-80
2021/08/02 11:13:27;;;;;;;1.40;0.77;;;;;;;18.47;60.10;100971.78;6286806;28;20060;-79
2021/08/02 11:16:29;;;;;;;5.88;1.10;;;;;;;18.73;56.55;100958.97;6296664;28;20056;-78
2021/08/02 11:19:32;;;;;;;3.35;0.90;;;;;;;18.89;55.87;100973.66;6299240;28;20049;-80
2021/08/02 11:22:33;;;;;;;2.83;0.90;;;;;;;19.24;55.18;100979.47;6289096;28;20056;-82
2021/08/02 11:25:40;;;;;;;3.35;0.90;;;;;;;19.13;55.45;100963.59;6276726;28;20049;-82
2021/08/02 11:28:44;;;;;;;3.88;0.90;;;;;;;18.91;57.63;100987.72;6276315;28;20492;-82
2021/08/02 11:32:03;;;;;;;6.75;1.30;;;;;;;18.59;56.22;100975.25;6276095;28;20049;-79
2021/08/02 11:35:07;;;;;;;;;;;;;;;19.05;53.45;100974.06;6276763;28;20049;-81
2021/08/02 11:38:08;;;;;;;0.75;0.50;;;;;;;19.06;52.87;100981.06;6276777;28;19924;-80
2021/08/02 11:41:10;;;;;;;5.63;1.00;;;;;;;19.18;54.04;100976.53;6276028;28;20061;-81
2021/08/02 11:44:11;;;;;;;5.57;0.85;;;;;;;19.03;53.63;100973.34;6276036;28;20484;-80
2021/08/02 11:47:19;;;;;;;4.00;1.02;;;;;;;18.95;52.79;100989.97;6275886;28;20053;-81
2021/08/02 11:50:22;;;;;;;3.72;1.10;;;;;;;18.68;54.74;100981.63;6299620;28;20055;-81
2021/08/02 11:53:33;;;;;;;3.13;0.80;;;;;;;18.59;55.46;100990.38;6301283;28;20049;-81
2021/08/02 11:56:34;;;;;;;5.95;1.08;;;;;;;18.56;55.24;101002.09;6288957;28;20055;-82
2021/08/02 11:59:35;;;;;;;6.25;1.10;;;;;;;18.61;55.65;100994.56;6275133;28;20071;-82
2021/08/02 12:02:38;;;;;;;6.82;0.98;;;;;;;18.64;56.96;100997.00;6275284;28;20523;-80
2021/08/02 12:05:41;;;;;;;2.45;0.73;;;;;;;18.58;56.71;101000.19;6275682;28;20045;-82
2021/08/02 12:08:50;;;;;;;2.58;1.25;;;;;;;18.40;60.54;101007.03;6274241;28;20127;-82
2021/08/02 12:11:52;;;;;;;5.53;0.80;;;;;;;17.97;63.75;101016.66;6273885;28;20048;-81
2021/08/02 12:15:04;;;;;;;6.80;1.10;;;;;;;17.67;65.89;101019.06;6274213;28;20060;-80
2021/08/02 12:18:05;;;;;;;6.50;1.50;;;;;;;17.45;68.46;101026.06;6273962;28;20049;-81
2021/08/02 12:21:17;;;;;;;4.05;0.80;;;;;;;17.23;69.89;101034.00;6273766;28;20052;-80
2021/08/02 12:24:28;;;;;;;5.50;1.02;;;;;;;17.21;68.00;101030.59;6274311;28;20488;-80
2021/08/02 12:27:29;;;;;;;6.85;1.27;;;;;;;16.96;68.96;101044.91;6274437;28;20512;-78
2021/08/02 12:30:31;;;;;;;5.13;1.08;;;;;;;16.76;70.91;101033.13;6272276;28;20048;-81
2021/08/02 12:33:32;;;;;;;5.18;0.80;;;;;;;16.88;71.03;101041.97;6274104;28;20045;-81
2021/08/02 12:36:35;;;;;;;5.05;1.55;;;;;;;16.89;69.61;101027.72;6274552;28;20064;-78
2021/08/02 12:39:36;;;;;;;12.75;1.25;;;;;;;16.77;70.09;101041.94;6274299;28;20060;-78
2021/08/02 12:42:45;;;;;;;2.72;0.80;;;;;;;16.76;69.91;101024.31;6274638;28;20045;-81
2021/08/02 12:45:46;;;;;;;3.70;1.05;;;;;;;16.77;68.51;101026.03;6273760;28;20060;-80
2021/08/02 12:48:47;;;;;;;2.53;0.88;;;;;;;16.81;67.78;101032.78;6249500;28;1031895;-80
2021/08/02 12:51:51;;;;;;;4.53;0.88;;;;;;;16.84;65.19;101025.41;6293049;28;20052;-81
2021/08/02 12:54:52;;;;;;;7.10;0.85;;;;;;;16.89;64.40;101028.56;6299432;28;20044;-80
2021/08/02 12:57:54;;;;;;;2.47;0.80;;;;;;;16.85;65.20;101032.44;6290729;28;20052;-79
2021/08/02 13:00:55;;;;;;;4.28;0.68;;;;;;;16.91;62.91;101017.88;6274264;28;20064;-83
2021/08/02 13:03:57;;;;;;;2.10;0.80;;;;;;;17.03;63.28;101022.22;6274403;28;20049;-84
2021/08/02 13:07:00;;;;;;;4.05;0.68;;;;;;;17.16;61.71;101022.13;6274895;28;20053;-83
2021/08/02 13:10:02;;;;;;;2.92;1.08;;;;;;;17.33;63.16;101024.34;6282093;28;20040;-82
2021/08/02 13:13:03;;;;;;;1.70;0.50;;;;;;;17.51;59.86;101022.06;6300390;28;20511;-82
2021/08/02 13:16:05;;;;;;;4.80;2.00;;;;;;;17.77;60.19;101017.41;6300288;28;20056;-83
2021/08/02 13:19:06;;;;;;;2.15;0.60;;;;;;;18.06;58.94;101012.41;6300023;28;20412;-82
2021/08/02 13:22:11;;;;;;;3.50;0.75;;;;;;;18.29;58.90;101015.88;6299890;28;20515;-84
2021/08/02 13:28:32;;;;;;;5.88;1.10;;;;;;;18.71;55.78;101006.22;6297021;28;20423;-80
2021/08/02 13:31:42;;;;;;;4.05;0.75;;;;;;;18.92;56.70;101006.22;6280498;28;20060;-79
2021/08/02 13:34:45;;;;;;;4.47;1.15;;;;;;;18.88;52.89;101001.28;6298247;28;20511;-81
2021/08/02 13:37:47;;;;;;;3.40;0.70;;;;;;;18.64;51.44;100999.66;6282534;28;20049;-81
2021/08/02 13:40:49;;;;;;;2.83;0.60;;;;;;;18.64;53.25;100994.34;6298017;28;20048;-81
2021/08/02 13:43:52;;;;;;;5.13;1.23;;;;;;;18.57;52.26;101006.44;6298257;28;20480;-80
2021/08/02 13:46:54;;;;;;;2.67;0.80;;;;;;;18.35;54.24;100995.88;6298055;28;20080;-80
2021/08/02 13:49:55;;;;;;;2.10;0.70;;;;;;;18.55;52.68;100999.59;6298174;28;20048;-81
2021/08/02 13:52:58;;;;;;;1.25;0.60;;;;;;;18.87;52.63;100989.78;6297715;28;20514;-80
2021/08/02 13:55:59;;;;;;;2.05;0.73;;;;;;;18.83;52.89;100988.34;6297625;28;20052;-80
2021/08/02 13:59:01;;;;;;;1.40;0.70;;;;;;;19.08;50.33;100991.59;6297500;28;20049;-81
2021/08/02 14:02:03;;;;;;;1.95;0.90;;;;;;;19.14;48.87;101001.72;6297094;28;20458;-81
2021/08/02 14:05:07;;;;;;;3.17;0.80;;;;;;;19.12;49.61;100998.34;6297922;28;20045;-81
2021/08/02 14:08:10;;;;;;;1.88;0.70;;;;;;;19.09;51.48;100991.47;6297805;28;20104;-81